Tornetrask Lake, Sweden

5:18 AM CEST on September 20, 2014 (GMT +0200)
Kiruna | Change Station
CLOSE
Current Station
Airport
Location: Kiruna,
Elevation: 1483 ft
Nearby Weather Stations

Elev 1483 ft 67.82 °N, 20.34 °E | Updated 28 minutes ago

Mostly Cloudy
Mostly Cloudy
43 °F
Feels Like 39 °F
N
6
Wind Variable Wind from South

Today
High -- | Low -- °F
--% Chance of Precip.
Yesterday
High -- | Low -- °F
Precip. -- in
6:14 AM 6:52 PM
Waning Crescent, 15% visible
Pressure 29.77 in
Visibility 5.6 miles
Clouds Mostly Cloudy 7600 ft
Windchill 39 °F
Dew Point 43 °F
Humidity 100%
Rainfall 0.00 in
Snow Depth Not available.
UV 0 out of 12
Pollen Not available.
Air Quality Not available.
Flu Activity Not available.
METAR ESNQ 200250Z AUTO 19005KT 9000 BKN076/// 06/06 Q1008

More Conditions Fewer Conditions

Pressure 29.77 in
Visibility 5.6 miles
Clouds Mostly Cloudy 7600 ft
Windchill 39 °F
Dew Point 43 °F
Humidity 100%
Rainfall 0.00 in
Snow Depth Not available.
UV 0 out of 12
Pollen Not available.
Air Quality Not available.
Flu Activity Not available.
METAR ESNQ 200250Z AUTO 19005KT 9000 BKN076/// 06/06 Q1008

More Conditions Fewer Conditions

10-Day Weather Forecast

Almanac

Astronomy

Sep. 20, 2014 Rise Set
Actual Time 6:14 AM CEST 6:52 PM CEST
Civil Twilight 5:17 AM CEST 7:49 PM CEST
Nautical Twilight 4:03 AM CEST 9:01 PM CEST
Astronomical Twilight 2:25 AM CEST 10:36 PM CEST
Moon 1:09 AM CEST 5:55 PM CEST
Length of Visible Light 14h 32m
Length of Day
12h 38m
Tomorrow will be 7m 48s shorter.
Waning Crescent, 15% of the Moon is Illuminated
Sep 19
Waning Crescent
Sep 24
New
Oct 1
First Quarter
Oct 8
Full
Oct 15
Last Quarter

Yesterday's Extremes

Country Highs Country Lows

Community

WunderPhotos

Upload Photos

1,754,775 photos uploaded!

WunderBlogs® & News

Nearby

Snow Depth

Not available.

Earthquake Activity

City Distance Mag. Time & Date
No recent earthquake activity has been reported nearby.
Minimum magnitude displayed is 2.5.

Coastal Water Temperatures

Place Temperature
No Stations Reporting

Nearby Weather Stations